sensor_id;sensor_type;location;lat;lon;timestamp;P1;durP1;ratioP1;P2;durP2;ratioP2
14770;SDS011;7477;45.222;5.688;2023-02-04T00:01:58;5.35;;;3.33;;
14770;SDS011;7477;45.222;5.688;2023-02-04T00:05:17;3.97;;;2.80;;
14770;SDS011;7477;45.222;5.688;2023-02-04T00:08:38;2.92;;;2.47;;
14770;SDS011;7477;45.222;5.688;2023-02-04T00:11:57;4.15;;;3.22;;
14770;SDS011;7477;45.222;5.688;2023-02-04T00:15:16;3.92;;;2.83;;
14770;SDS011;7477;45.222;5.688;2023-02-04T00:18:35;4.88;;;3.30;;
14770;SDS011;7477;45.222;5.688;2023-02-04T00:21:54;8.27;;;4.47;;
14770;SDS011;7477;45.222;5.688;2023-02-04T00:25:13;4.85;;;3.40;;
14770;SDS011;7477;45.222;5.688;2023-02-04T00:28:32;5.55;;;3.42;;
14770;SDS011;7477;45.222;5.688;2023-02-04T00:31:51;7.10;;;3.20;;
14770;SDS011;7477;45.222;5.688;2023-02-04T00:35:11;13.83;;;7.00;;
14770;SDS011;7477;45.222;5.688;2023-02-04T00:38:31;4.57;;;3.17;;
14770;SDS011;7477;45.222;5.688;2023-02-04T00:41:50;5.90;;;3.35;;
14770;SDS011;7477;45.222;5.688;2023-02-04T00:45:09;8.43;;;4.43;;
14770;SDS011;7477;45.222;5.688;2023-02-04T00:48:29;6.28;;;3.53;;
14770;SDS011;7477;45.222;5.688;2023-02-04T00:51:48;6.30;;;3.67;;
14770;SDS011;7477;45.222;5.688;2023-02-04T00:55:07;12.85;;;5.68;;
14770;SDS011;7477;45.222;5.688;2023-02-04T00:58:29;12.03;;;6.40;;
14770;SDS011;7477;45.222;5.688;2023-02-04T01:01:48;9.55;;;5.15;;
14770;SDS011;7477;45.222;5.688;2023-02-04T01:05:09;7.07;;;3.28;;
14770;SDS011;7477;45.222;5.688;2023-02-04T01:08:28;5.90;;;3.95;;
14770;SDS011;7477;45.222;5.688;2023-02-04T01:11:47;11.13;;;5.45;;
14770;SDS011;7477;45.222;5.688;2023-02-04T01:15:06;10.18;;;5.32;;
14770;SDS011;7477;45.222;5.688;2023-02-04T01:18:26;5.97;;;3.50;;
14770;SDS011;7477;45.222;5.688;2023-02-04T01:21:46;6.22;;;3.70;;
14770;SDS011;7477;45.222;5.688;2023-02-04T01:25:06;8.10;;;4.57;;
14770;SDS011;7477;45.222;5.688;2023-02-04T01:28:25;6.32;;;3.25;;
14770;SDS011;7477;45.222;5.688;2023-02-04T01:31:44;7.55;;;3.50;;
14770;SDS011;7477;45.222;5.688;2023-02-04T01:35:03;5.22;;;3.45;;
14770;SDS011;7477;45.222;5.688;2023-02-04T01:38:23;5.50;;;3.40;;
14770;SDS011;7477;45.222;5.688;2023-02-04T01:41:42;5.10;;;3.22;;
14770;SDS011;7477;45.222;5.688;2023-02-04T01:45:02;7.57;;;3.60;;
14770;SDS011;7477;45.222;5.688;2023-02-04T01:48:24;6.83;;;4.23;;
14770;SDS011;7477;45.222;5.688;2023-02-04T01:51:44;28.70;;;12.05;;
14770;SDS011;7477;45.222;5.688;2023-02-04T01:55:05;13.77;;;6.82;;
14770;SDS011;7477;45.222;5.688;2023-02-04T01:58:32;9.07;;;4.20;;
14770;SDS011;7477;45.222;5.688;2023-02-04T02:01:52;5.05;;;3.35;;
14770;SDS011;7477;45.222;5.688;2023-02-04T02:05:14;7.93;;;3.97;;
14770;SDS011;7477;45.222;5.688;2023-02-04T02:08:38;18.02;;;8.07;;
14770;SDS011;7477;45.222;5.688;2023-02-04T02:11:57;10.07;;;4.68;;
14770;SDS011;7477;45.222;5.688;2023-02-04T02:15:20;12.43;;;6.32;;
14770;SDS011;7477;45.222;5.688;2023-02-04T02:18:39;12.55;;;5.75;;
14770;SDS011;7477;45.222;5.688;2023-02-04T02:22:01;7.47;;;4.10;;
14770;SDS011;7477;45.222;5.688;2023-02-04T02:25:23;9.27;;;5.38;;
14770;SDS011;7477;45.222;5.688;2023-02-04T02:28:42;5.72;;;3.95;;
14770;SDS011;7477;45.222;5.688;2023-02-04T02:32:03;5.97;;;3.83;;
14770;SDS011;7477;45.222;5.688;2023-02-04T02:35:23;6.15;;;3.72;;
14770;SDS011;7477;45.222;5.688;2023-02-04T02:38:42;4.83;;;3.57;;
14770;SDS011;7477;45.222;5.688;2023-02-04T02:42:02;5.93;;;3.63;;
14770;SDS011;7477;45.222;5.688;2023-02-04T02:45:22;5.90;;;3.77;;
14770;SDS011;7477;45.222;5.688;2023-02-04T02:48:45;5.13;;;3.38;;
14770;SDS011;7477;45.222;5.688;2023-02-04T02:52:04;8.48;;;3.88;;
14770;SDS011;7477;45.222;5.688;2023-02-04T02:55:25;4.17;;;3.57;;
14770;SDS011;7477;45.222;5.688;2023-02-04T02:58:45;5.63;;;3.80;;
14770;SDS011;7477;45.222;5.688;2023-02-04T03:02:04;3.83;;;3.25;;
14770;SDS011;7477;45.222;5.688;2023-02-04T03:05:25;8.20;;;3.72;;
14770;SDS011;7477;45.222;5.688;2023-02-04T03:08:48;9.23;;;4.45;;
14770;SDS011;7477;45.222;5.688;2023-02-04T03:12:09;8.32;;;3.55;;
14770;SDS011;7477;45.222;5.688;2023-02-04T03:15:28;8.73;;;3.90;;
14770;SDS011;7477;45.222;5.688;2023-02-04T03:18:48;4.67;;;3.80;;
14770;SDS011;7477;45.222;5.688;2023-02-04T03:22:08;8.07;;;4.33;;
14770;SDS011;7477;45.222;5.688;2023-02-04T03:25:27;13.63;;;7.43;;
14770;SDS011;7477;45.222;5.688;2023-02-04T03:28:47;7.60;;;4.53;;
14770;SDS011;7477;45.222;5.688;2023-02-04T03:32:06;5.20;;;3.88;;
14770;SDS011;7477;45.222;5.688;2023-02-04T03:35:25;6.60;;;4.93;;
14770;SDS011;7477;45.222;5.688;2023-02-04T03:38:44;6.10;;;4.00;;
14770;SDS011;7477;45.222;5.688;2023-02-04T03:42:03;6.33;;;4.60;;
14770;SDS011;7477;45.222;5.688;2023-02-04T03:45:23;4.57;;;3.77;;
14770;SDS011;7477;45.222;5.688;2023-02-04T03:48:42;4.65;;;3.70;;
14770;SDS011;7477;45.222;5.688;2023-02-04T03:52:01;5.90;;;3.43;;
14770;SDS011;7477;45.222;5.688;2023-02-04T03:55:21;6.97;;;3.70;;
14770;SDS011;7477;45.222;5.688;2023-02-04T03:58:41;5.27;;;4.20;;
14770;SDS011;7477;45.222;5.688;2023-02-04T04:02:00;3.70;;;3.17;;
14770;SDS011;7477;45.222;5.688;2023-02-04T04:05:19;4.43;;;3.93;;
14770;SDS011;7477;45.222;5.688;2023-02-04T04:08:39;5.20;;;3.57;;
14770;SDS011;7477;45.222;5.688;2023-02-04T04:11:58;7.03;;;3.43;;
14770;SDS011;7477;45.222;5.688;2023-02-04T04:15:17;4.23;;;3.60;;
14770;SDS011;7477;45.222;5.688;2023-02-04T04:18:36;4.43;;;3.23;;
14770;SDS011;7477;45.222;5.688;2023-02-04T04:21:55;6.83;;;4.13;;
14770;SDS011;7477;45.222;5.688;2023-02-04T04:25:14;6.37;;;3.37;;
14770;SDS011;7477;45.222;5.688;2023-02-04T04:28:33;5.23;;;3.47;;
14770;SDS011;7477;45.222;5.688;2023-02-04T04:31:52;6.13;;;3.90;;
14770;SDS011;7477;45.222;5.688;2023-02-04T04:35:11;6.43;;;3.67;;
14770;SDS011;7477;45.222;5.688;2023-02-04T04:38:31;6.83;;;4.33;;
14770;SDS011;7477;45.222;5.688;2023-02-04T04:41:50;4.53;;;3.20;;
14770;SDS011;7477;45.222;5.688;2023-02-04T04:45:09;6.83;;;3.80;;
14770;SDS011;7477;45.222;5.688;2023-02-04T04:48:29;7.10;;;4.13;;
14770;SDS011;7477;45.222;5.688;2023-02-04T04:51:48;8.13;;;3.70;;
14770;SDS011;7477;45.222;5.688;2023-02-04T04:55:07;6.20;;;4.40;;
14770;SDS011;7477;45.222;5.688;2023-02-04T04:58:27;6.80;;;4.27;;
14770;SDS011;7477;45.222;5.688;2023-02-04T05:01:46;9.10;;;4.10;;
14770;SDS011;7477;45.222;5.688;2023-02-04T05:05:05;5.90;;;4.17;;
14770;SDS011;7477;45.222;5.688;2023-02-04T05:08:24;4.97;;;4.13;;
14770;SDS011;7477;45.222;5.688;2023-02-04T05:11:43;7.27;;;4.30;;
14770;SDS011;7477;45.222;5.688;2023-02-04T05:15:02;5.27;;;4.50;;
14770;SDS011;7477;45.222;5.688;2023-02-04T05:18:23;13.70;;;5.53;;
14770;SDS011;7477;45.222;5.688;2023-02-04T05:21:42;7.10;;;5.60;;
14770;SDS011;7477;45.222;5.688;2023-02-04T05:25:01;7.60;;;5.20;;
14770;SDS011;7477;45.222;5.688;2023-02-04T05:28:21;7.80;;;5.00;;
14770;SDS011;7477;45.222;5.688;2023-02-04T05:31:40;8.23;;;4.90;;
14770;SDS011;7477;45.222;5.688;2023-02-04T05:34:59;8.53;;;6.27;;
14770;SDS011;7477;45.222;5.688;2023-02-04T05:38:18;8.47;;;5.70;;
14770;SDS011;7477;45.222;5.688;2023-02-04T05:41:37;10.33;;;6.30;;
14770;SDS011;7477;45.222;5.688;2023-02-04T05:44:57;14.90;;;7.50;;
14770;SDS011;7477;45.222;5.688;2023-02-04T05:48:16;9.40;;;7.00;;
14770;SDS011;7477;45.222;5.688;2023-02-04T05:51:36;10.47;;;6.93;;
14770;SDS011;7477;45.222;5.688;2023-02-04T05:54:55;9.97;;;6.47;;
14770;SDS011;7477;45.222;5.688;2023-02-04T05:58:15;15.37;;;7.03;;
14770;SDS011;7477;45.222;5.688;2023-02-04T06:01:34;14.13;;;7.30;;
14770;SDS011;7477;45.222;5.688;2023-02-04T06:04:53;9.60;;;6.53;;
14770;SDS011;7477;45.222;5.688;2023-02-04T06:08:12;12.87;;;7.13;;
14770;SDS011;7477;45.222;5.688;2023-02-04T06:11:33;11.60;;;7.50;;
14770;SDS011;7477;45.222;5.688;2023-02-04T06:14:52;11.63;;;7.03;;
14770;SDS011;7477;45.222;5.688;2023-02-04T06:18:11;8.80;;;6.57;;
14770;SDS011;7477;45.222;5.688;2023-02-04T06:21:31;8.90;;;6.30;;
14770;SDS011;7477;45.222;5.688;2023-02-04T06:24:50;13.67;;;7.23;;
14770;SDS011;7477;45.222;5.688;2023-02-04T06:28:10;12.37;;;7.87;;
14770;SDS011;7477;45.222;5.688;2023-02-04T06:31:29;14.40;;;7.67;;
14770;SDS011;7477;45.222;5.688;2023-02-04T06:34:48;12.80;;;7.37;;
14770;SDS011;7477;45.222;5.688;2023-02-04T06:38:08;14.10;;;7.37;;
14770;SDS011;7477;45.222;5.688;2023-02-04T06:41:27;12.50;;;7.30;;
14770;SDS011;7477;45.222;5.688;2023-02-04T06:44:46;11.67;;;7.50;;
14770;SDS011;7477;45.222;5.688;2023-02-04T06:48:05;14.20;;;8.00;;
14770;SDS011;7477;45.222;5.688;2023-02-04T06:51:25;36.83;;;23.13;;
14770;SDS011;7477;45.222;5.688;2023-02-04T06:54:45;15.23;;;10.90;;
14770;SDS011;7477;45.222;5.688;2023-02-04T06:58:04;10.57;;;7.17;;
14770;SDS011;7477;45.222;5.688;2023-02-04T07:01:24;12.73;;;8.17;;
14770;SDS011;7477;45.222;5.688;2023-02-04T07:04:43;11.03;;;8.00;;
14770;SDS011;7477;45.222;5.688;2023-02-04T07:08:03;15.23;;;8.20;;
14770;SDS011;7477;45.222;5.688;2023-02-04T07:11:22;13.40;;;8.17;;
14770;SDS011;7477;45.222;5.688;2023-02-04T07:14:41;15.30;;;9.10;;
14770;SDS011;7477;45.222;5.688;2023-02-04T07:18:00;14.17;;;9.57;;
14770;SDS011;7477;45.222;5.688;2023-02-04T07:21:19;14.87;;;8.77;;
14770;SDS011;7477;45.222;5.688;2023-02-04T07:24:39;14.27;;;8.87;;
14770;SDS011;7477;45.222;5.688;2023-02-04T07:27:58;14.90;;;9.20;;
14770;SDS011;7477;45.222;5.688;2023-02-04T07:31:19;14.70;;;8.97;;
14770;SDS011;7477;45.222;5.688;2023-02-04T07:34:38;13.57;;;7.77;;
14770;SDS011;7477;45.222;5.688;2023-02-04T07:37:57;16.90;;;8.33;;
14770;SDS011;7477;45.222;5.688;2023-02-04T07:41:16;12.87;;;8.07;;
14770;SDS011;7477;45.222;5.688;2023-02-04T07:44:37;9.50;;;7.53;;
14770;SDS011;7477;45.222;5.688;2023-02-04T07:47:56;14.47;;;8.33;;
14770;SDS011;7477;45.222;5.688;2023-02-04T07:51:15;14.67;;;7.80;;
14770;SDS011;7477;45.222;5.688;2023-02-04T07:54:34;10.67;;;7.97;;
14770;SDS011;7477;45.222;5.688;2023-02-04T07:57:53;11.43;;;8.10;;
14770;SDS011;7477;45.222;5.688;2023-02-04T08:01:12;13.50;;;8.03;;
14770;SDS011;7477;45.222;5.688;2023-02-04T08:04:31;11.93;;;7.73;;
14770;SDS011;7477;45.222;5.688;2023-02-04T08:07:50;14.10;;;7.67;;
14770;SDS011;7477;45.222;5.688;2023-02-04T08:11:09;11.47;;;7.60;;
14770;SDS011;7477;45.222;5.688;2023-02-04T08:14:28;8.80;;;6.77;;
14770;SDS011;7477;45.222;5.688;2023-02-04T08:17:48;15.10;;;7.13;;
14770;SDS011;7477;45.222;5.688;2023-02-04T08:21:07;13.93;;;7.83;;
14770;SDS011;7477;45.222;5.688;2023-02-04T08:24:26;8.63;;;6.77;;
14770;SDS011;7477;45.222;5.688;2023-02-04T08:27:45;16.00;;;7.90;;
14770;SDS011;7477;45.222;5.688;2023-02-04T08:31:04;13.67;;;7.67;;
14770;SDS011;7477;45.222;5.688;2023-02-04T08:34:24;11.23;;;7.23;;
14770;SDS011;7477;45.222;5.688;2023-02-04T08:37:43;12.07;;;7.17;;
14770;SDS011;7477;45.222;5.688;2023-02-04T08:41:03;10.03;;;6.13;;
14770;SDS011;7477;45.222;5.688;2023-02-04T08:44:22;14.90;;;8.20;;
14770;SDS011;7477;45.222;5.688;2023-02-04T08:47:41;10.30;;;6.77;;
14770;SDS011;7477;45.222;5.688;2023-02-04T08:51:00;13.07;;;7.20;;
14770;SDS011;7477;45.222;5.688;2023-02-04T08:54:19;11.07;;;7.23;;
14770;SDS011;7477;45.222;5.688;2023-02-04T08:57:38;14.00;;;7.40;;
14770;SDS011;7477;45.222;5.688;2023-02-04T09:00:58;11.30;;;7.90;;
14770;SDS011;7477;45.222;5.688;2023-02-04T09:04:17;11.83;;;7.43;;
14770;SDS011;7477;45.222;5.688;2023-02-04T09:07:38;25.77;;;10.23;;
14770;SDS011;7477;45.222;5.688;2023-02-04T09:10:57;13.73;;;8.83;;
14770;SDS011;7477;45.222;5.688;2023-02-04T09:14:19;15.03;;;8.50;;
14770;SDS011;7477;45.222;5.688;2023-02-04T09:17:38;10.50;;;8.00;;
14770;SDS011;7477;45.222;5.688;2023-02-04T09:20:58;16.07;;;8.23;;
14770;SDS011;7477;45.222;5.688;2023-02-04T09:24:17;17.40;;;8.43;;
14770;SDS011;7477;45.222;5.688;2023-02-04T09:27:36;14.82;;;8.20;;
14770;SDS011;7477;45.222;5.688;2023-02-04T09:30:56;13.53;;;7.90;;
14770;SDS011;7477;45.222;5.688;2023-02-04T09:34:15;16.27;;;7.80;;
14770;SDS011;7477;45.222;5.688;2023-02-04T09:37:34;12.87;;;7.43;;
14770;SDS011;7477;45.222;5.688;2023-02-04T09:40:55;17.77;;;7.27;;
14770;SDS011;7477;45.222;5.688;2023-02-04T09:44:18;16.42;;;7.70;;
14770;SDS011;7477;45.222;5.688;2023-02-04T09:47:40;14.80;;;8.57;;
14770;SDS011;7477;45.222;5.688;2023-02-04T09:51:03;15.43;;;8.73;;
14770;SDS011;7477;45.222;5.688;2023-02-04T09:54:24;19.30;;;8.33;;
14770;SDS011;7477;45.222;5.688;2023-02-04T09:57:43;15.80;;;8.60;;
14770;SDS011;7477;45.222;5.688;2023-02-04T10:04:35;16.30;;;8.47;;
14770;SDS011;7477;45.222;5.688;2023-02-04T10:07:55;17.47;;;8.97;;
14770;SDS011;7477;45.222;5.688;2023-02-04T10:11:16;30.80;;;13.87;;
14770;SDS011;7477;45.222;5.688;2023-02-04T10:14:37;17.95;;;9.23;;
14770;SDS011;7477;45.222;5.688;2023-02-04T10:18:02;11.82;;;7.65;;
14770;SDS011;7477;45.222;5.688;2023-02-04T10:21:26;10.30;;;7.45;;
14770;SDS011;7477;45.222;5.688;2023-02-04T10:24:47;13.65;;;8.77;;
14770;SDS011;7477;45.222;5.688;2023-02-04T10:28:06;12.47;;;8.63;;
14770;SDS011;7477;45.222;5.688;2023-02-04T10:31:45;10.97;;;8.53;;
14770;SDS011;7477;45.222;5.688;2023-02-04T10:35:12;17.97;;;8.93;;
14770;SDS011;7477;45.222;5.688;2023-02-04T10:38:33;10.53;;;7.90;;
14770;SDS011;7477;45.222;5.688;2023-02-04T10:41:56;15.43;;;8.50;;
14770;SDS011;7477;45.222;5.688;2023-02-04T10:45:24;14.27;;;9.03;;
14770;SDS011;7477;45.222;5.688;2023-02-04T10:48:44;13.30;;;8.55;;
14770;SDS011;7477;45.222;5.688;2023-02-04T10:52:12;13.53;;;8.50;;
14770;SDS011;7477;45.222;5.688;2023-02-04T10:55:35;21.95;;;8.27;;
14770;SDS011;7477;45.222;5.688;2023-02-04T10:58:54;15.48;;;8.27;;
14770;SDS011;7477;45.222;5.688;2023-02-04T11:05:48;14.40;;;8.60;;
14770;SDS011;7477;45.222;5.688;2023-02-04T11:09:10;13.23;;;7.88;;
14770;SDS011;7477;45.222;5.688;2023-02-04T11:12:43;11.57;;;7.75;;
14770;SDS011;7477;45.222;5.688;2023-02-04T11:19:36;12.70;;;7.90;;
14770;SDS011;7477;45.222;5.688;2023-02-04T11:22:56;12.13;;;7.78;;
14770;SDS011;7477;45.222;5.688;2023-02-04T11:26:51;16.10;;;9.55;;
14770;SDS011;7477;45.222;5.688;2023-02-04T11:30:22;13.18;;;8.45;;
14770;SDS011;7477;45.222;5.688;2023-02-04T11:33:41;14.48;;;8.25;;
14770;SDS011;7477;45.222;5.688;2023-02-04T11:40:21;12.15;;;7.70;;
14770;SDS011;7477;45.222;5.688;2023-02-04T11:43:49;12.50;;;7.72;;
14770;SDS011;7477;45.222;5.688;2023-02-04T11:47:12;14.73;;;7.32;;
14770;SDS011;7477;45.222;5.688;2023-02-04T11:50:33;14.10;;;8.35;;
14770;SDS011;7477;45.222;5.688;2023-02-04T11:53:55;11.23;;;7.72;;
14770;SDS011;7477;45.222;5.688;2023-02-04T11:57:15;12.82;;;7.82;;
14770;SDS011;7477;45.222;5.688;2023-02-04T12:00:34;10.15;;;5.70;;
14770;SDS011;7477;45.222;5.688;2023-02-04T12:04:00;10.05;;;5.40;;
14770;SDS011;7477;45.222;5.688;2023-02-04T12:07:27;6.18;;;5.05;;
14770;SDS011;7477;45.222;5.688;2023-02-04T12:11:08;11.13;;;7.85;;
14770;SDS011;7477;45.222;5.688;2023-02-04T12:14:33;17.75;;;7.57;;
14770;SDS011;7477;45.222;5.688;2023-02-04T12:21:25;8.60;;;6.22;;
14770;SDS011;7477;45.222;5.688;2023-02-04T12:24:44;5.90;;;4.85;;
14770;SDS011;7477;45.222;5.688;2023-02-04T12:28:04;8.05;;;4.85;;
14770;SDS011;7477;45.222;5.688;2023-02-04T12:31:23;7.45;;;4.43;;
14770;SDS011;7477;45.222;5.688;2023-02-04T12:34:42;6.28;;;4.75;;
14770;SDS011;7477;45.222;5.688;2023-02-04T12:38:01;5.20;;;4.63;;
14770;SDS011;7477;45.222;5.688;2023-02-04T12:41:21;5.95;;;4.63;;
14770;SDS011;7477;45.222;5.688;2023-02-04T12:44:40;4.72;;;4.18;;
14770;SDS011;7477;45.222;5.688;2023-02-04T12:47:59;6.68;;;4.13;;
14770;SDS011;7477;45.222;5.688;2023-02-04T12:51:19;7.88;;;4.85;;
14770;SDS011;7477;45.222;5.688;2023-02-04T12:54:39;7.13;;;4.40;;
14770;SDS011;7477;45.222;5.688;2023-02-04T12:57:58;6.15;;;4.85;;
14770;SDS011;7477;45.222;5.688;2023-02-04T13:01:17;7.60;;;5.45;;
14770;SDS011;7477;45.222;5.688;2023-02-04T13:04:36;6.00;;;4.07;;
14770;SDS011;7477;45.222;5.688;2023-02-04T13:07:55;7.75;;;4.65;;
14770;SDS011;7477;45.222;5.688;2023-02-04T13:11:15;6.18;;;4.38;;
14770;SDS011;7477;45.222;5.688;2023-02-04T13:14:34;6.57;;;4.68;;
14770;SDS011;7477;45.222;5.688;2023-02-04T13:17:53;8.35;;;4.72;;
14770;SDS011;7477;45.222;5.688;2023-02-04T13:21:12;6.03;;;4.43;;
14770;SDS011;7477;45.222;5.688;2023-02-04T13:24:31;6.57;;;4.25;;
14770;SDS011;7477;45.222;5.688;2023-02-04T13:27:50;6.75;;;4.78;;
14770;SDS011;7477;45.222;5.688;2023-02-04T13:31:09;5.22;;;4.57;;
14770;SDS011;7477;45.222;5.688;2023-02-04T13:34:29;5.32;;;4.20;;
14770;SDS011;7477;45.222;5.688;2023-02-04T13:37:48;5.07;;;4.47;;
14770;SDS011;7477;45.222;5.688;2023-02-04T13:41:07;6.93;;;4.15;;
14770;SDS011;7477;45.222;5.688;2023-02-04T13:44:26;6.75;;;4.93;;
14770;SDS011;7477;45.222;5.688;2023-02-04T13:47:45;6.57;;;5.43;;
14770;SDS011;7477;45.222;5.688;2023-02-04T13:51:06;4.07;;;3.33;;
14770;SDS011;7477;45.222;5.688;2023-02-04T13:54:25;4.65;;;3.97;;
14770;SDS011;7477;45.222;5.688;2023-02-04T13:57:44;5.50;;;3.72;;
14770;SDS011;7477;45.222;5.688;2023-02-04T14:01:04;4.82;;;4.10;;
14770;SDS011;7477;45.222;5.688;2023-02-04T14:04:23;5.13;;;4.53;;
14770;SDS011;7477;45.222;5.688;2023-02-04T14:07:45;4.82;;;4.25;;
14770;SDS011;7477;45.222;5.688;2023-02-04T14:11:03;4.60;;;3.90;;
14770;SDS011;7477;45.222;5.688;2023-02-04T14:14:25;4.32;;;3.83;;
14770;SDS011;7477;45.222;5.688;2023-02-04T14:17:44;5.03;;;3.95;;
14770;SDS011;7477;45.222;5.688;2023-02-04T14:21:03;5.00;;;3.92;;
14770;SDS011;7477;45.222;5.688;2023-02-04T14:24:23;5.15;;;3.30;;
14770;SDS011;7477;45.222;5.688;2023-02-04T14:27:42;3.90;;;3.25;;
14770;SDS011;7477;45.222;5.688;2023-02-04T14:31:02;4.20;;;3.22;;
14770;SDS011;7477;45.222;5.688;2023-02-04T14:34:21;5.45;;;4.15;;
14770;SDS011;7477;45.222;5.688;2023-02-04T14:37:40;4.88;;;3.90;;
14770;SDS011;7477;45.222;5.688;2023-02-04T14:41:00;6.47;;;4.20;;
14770;SDS011;7477;45.222;5.688;2023-02-04T14:44:19;5.20;;;3.70;;
14770;SDS011;7477;45.222;5.688;2023-02-04T14:47:39;6.53;;;3.90;;
14770;SDS011;7477;45.222;5.688;2023-02-04T14:50:59;6.10;;;4.97;;
14770;SDS011;7477;45.222;5.688;2023-02-04T14:54:18;6.47;;;4.60;;
14770;SDS011;7477;45.222;5.688;2023-02-04T14:57:38;4.10;;;3.50;;
14770;SDS011;7477;45.222;5.688;2023-02-04T15:00:57;4.72;;;3.08;;
14770;SDS011;7477;45.222;5.688;2023-02-04T15:04:16;5.50;;;3.85;;
14770;SDS011;7477;45.222;5.688;2023-02-04T15:07:36;6.13;;;4.65;;
14770;SDS011;7477;45.222;5.688;2023-02-04T15:10:56;6.10;;;4.40;;
14770;SDS011;7477;45.222;5.688;2023-02-04T15:14:15;6.53;;;4.53;;
14770;SDS011;7477;45.222;5.688;2023-02-04T15:17:36;6.78;;;4.75;;
14770;SDS011;7477;45.222;5.688;2023-02-04T15:20:55;7.80;;;4.93;;
14770;SDS011;7477;45.222;5.688;2023-02-04T15:24:14;5.97;;;4.38;;
14770;SDS011;7477;45.222;5.688;2023-02-04T15:27:33;7.95;;;4.72;;
14770;SDS011;7477;45.222;5.688;2023-02-04T15:30:52;8.38;;;4.97;;
14770;SDS011;7477;45.222;5.688;2023-02-04T15:34:11;6.05;;;4.47;;
14770;SDS011;7477;45.222;5.688;2023-02-04T15:37:31;7.72;;;5.05;;
14770;SDS011;7477;45.222;5.688;2023-02-04T15:40:50;6.80;;;4.85;;
14770;SDS011;7477;45.222;5.688;2023-02-04T15:44:09;6.45;;;4.75;;
14770;SDS011;7477;45.222;5.688;2023-02-04T15:47:29;6.47;;;4.68;;
14770;SDS011;7477;45.222;5.688;2023-02-04T15:50:49;5.57;;;4.68;;
14770;SDS011;7477;45.222;5.688;2023-02-04T15:54:08;6.40;;;4.63;;
14770;SDS011;7477;45.222;5.688;2023-02-04T15:57:28;6.97;;;4.72;;
14770;SDS011;7477;45.222;5.688;2023-02-04T16:00:47;7.53;;;5.05;;
14770;SDS011;7477;45.222;5.688;2023-02-04T16:04:06;6.95;;;4.55;;
14770;SDS011;7477;45.222;5.688;2023-02-04T16:07:25;7.90;;;5.45;;
14770;SDS011;7477;45.222;5.688;2023-02-04T16:10:45;5.28;;;4.65;;
14770;SDS011;7477;45.222;5.688;2023-02-04T16:14:04;7.22;;;5.15;;
14770;SDS011;7477;45.222;5.688;2023-02-04T16:17:23;9.27;;;5.28;;
14770;SDS011;7477;45.222;5.688;2023-02-04T16:20:42;7.95;;;5.43;;
14770;SDS011;7477;45.222;5.688;2023-02-04T16:24:01;8.48;;;5.10;;
14770;SDS011;7477;45.222;5.688;2023-02-04T16:27:20;6.72;;;5.10;;
14770;SDS011;7477;45.222;5.688;2023-02-04T16:30:40;6.88;;;5.40;;
14770;SDS011;7477;45.222;5.688;2023-02-04T16:33:59;5.70;;;4.75;;
14770;SDS011;7477;45.222;5.688;2023-02-04T16:37:18;4.82;;;4.32;;
14770;SDS011;7477;45.222;5.688;2023-02-04T16:40:37;6.78;;;4.70;;
14770;SDS011;7477;45.222;5.688;2023-02-04T16:43:57;7.07;;;4.22;;
14770;SDS011;7477;45.222;5.688;2023-02-04T16:47:17;7.63;;;4.78;;
14770;SDS011;7477;45.222;5.688;2023-02-04T16:50:37;6.90;;;4.57;;
14770;SDS011;7477;45.222;5.688;2023-02-04T16:53:56;4.85;;;3.92;;
14770;SDS011;7477;45.222;5.688;2023-02-04T16:57:15;5.13;;;4.00;;
14770;SDS011;7477;45.222;5.688;2023-02-04T17:00:36;9.65;;;5.55;;
14770;SDS011;7477;45.222;5.688;2023-02-04T17:03:59;4.28;;;3.30;;
14770;SDS011;7477;45.222;5.688;2023-02-04T17:07:18;4.78;;;3.95;;
14770;SDS011;7477;45.222;5.688;2023-02-04T17:10:37;7.68;;;4.40;;
14770;SDS011;7477;45.222;5.688;2023-02-04T17:14:15;3.88;;;2.95;;
14770;SDS011;7477;45.222;5.688;2023-02-04T17:17:35;4.32;;;3.70;;
14770;SDS011;7477;45.222;5.688;2023-02-04T17:20:55;5.43;;;3.80;;
14770;SDS011;7477;45.222;5.688;2023-02-04T17:24:14;4.82;;;3.70;;
14770;SDS011;7477;45.222;5.688;2023-02-04T17:27:34;5.18;;;4.15;;
14770;SDS011;7477;45.222;5.688;2023-02-04T17:30:53;5.88;;;4.03;;
14770;SDS011;7477;45.222;5.688;2023-02-04T17:34:12;4.82;;;3.70;;
14770;SDS011;7477;45.222;5.688;2023-02-04T17:37:31;4.18;;;3.47;;
14770;SDS011;7477;45.222;5.688;2023-02-04T17:40:50;7.03;;;4.03;;
14770;SDS011;7477;45.222;5.688;2023-02-04T17:44:13;4.10;;;3.22;;
14770;SDS011;7477;45.222;5.688;2023-02-04T17:47:37;4.65;;;3.50;;
14770;SDS011;7477;45.222;5.688;2023-02-04T17:50:57;4.05;;;3.20;;
14770;SDS011;7477;45.222;5.688;2023-02-04T17:54:16;3.58;;;3.28;;
14770;SDS011;7477;45.222;5.688;2023-02-04T17:57:35;5.22;;;3.65;;
14770;SDS011;7477;45.222;5.688;2023-02-04T18:00:55;3.80;;;3.00;;
14770;SDS011;7477;45.222;5.688;2023-02-04T18:04:16;4.45;;;3.40;;
14770;SDS011;7477;45.222;5.688;2023-02-04T18:07:35;4.63;;;3.50;;
14770;SDS011;7477;45.222;5.688;2023-02-04T18:10:54;4.43;;;3.35;;
14770;SDS011;7477;45.222;5.688;2023-02-04T18:14:23;4.63;;;3.45;;
14770;SDS011;7477;45.222;5.688;2023-02-04T18:17:44;5.45;;;3.90;;
14770;SDS011;7477;45.222;5.688;2023-02-04T18:24:37;4.15;;;3.38;;
14770;SDS011;7477;45.222;5.688;2023-02-04T18:27:59;9.27;;;5.72;;
14770;SDS011;7477;45.222;5.688;2023-02-04T18:31:24;4.65;;;3.58;;
14770;SDS011;7477;45.222;5.688;2023-02-04T18:34:52;5.45;;;3.50;;
14770;SDS011;7477;45.222;5.688;2023-02-04T18:41:39;4.45;;;3.58;;
14770;SDS011;7477;45.222;5.688;2023-02-04T18:45:11;5.88;;;4.10;;
14770;SDS011;7477;45.222;5.688;2023-02-04T18:52:18;4.00;;;3.42;;
14770;SDS011;7477;45.222;5.688;2023-02-04T18:55:40;5.10;;;4.10;;
14770;SDS011;7477;45.222;5.688;2023-02-04T18:59:09;3.80;;;3.13;;
14770;SDS011;7477;45.222;5.688;2023-02-04T19:02:36;5.03;;;3.58;;
14770;SDS011;7477;45.222;5.688;2023-02-04T19:06:00;4.78;;;3.95;;
14770;SDS011;7477;45.222;5.688;2023-02-04T19:09:24;4.78;;;3.78;;
14770;SDS011;7477;45.222;5.688;2023-02-04T19:12:48;8.20;;;5.32;;
14770;SDS011;7477;45.222;5.688;2023-02-04T19:16:22;5.82;;;4.80;;
14770;SDS011;7477;45.222;5.688;2023-02-04T19:19:43;6.90;;;5.28;;
14770;SDS011;7477;45.222;5.688;2023-02-04T19:23:12;5.15;;;4.10;;
14770;SDS011;7477;45.222;5.688;2023-02-04T19:26:34;4.82;;;3.88;;
14770;SDS011;7477;45.222;5.688;2023-02-04T19:29:54;4.75;;;3.72;;
14770;SDS011;7477;45.222;5.688;2023-02-04T19:33:16;5.20;;;3.90;;
14770;SDS011;7477;45.222;5.688;2023-02-04T19:36:55;4.13;;;3.20;;
14770;SDS011;7477;45.222;5.688;2023-02-04T19:43:47;4.22;;;3.67;;
14770;SDS011;7477;45.222;5.688;2023-02-04T19:50:42;3.78;;;3.17;;
14770;SDS011;7477;45.222;5.688;2023-02-04T19:54:15;4.30;;;3.53;;
14770;SDS011;7477;45.222;5.688;2023-02-04T19:57:37;4.65;;;3.20;;
14770;SDS011;7477;45.222;5.688;2023-02-04T20:00:58;7.15;;;3.88;;
14770;SDS011;7477;45.222;5.688;2023-02-04T20:04:22;3.47;;;3.05;;
14770;SDS011;7477;45.222;5.688;2023-02-04T20:07:41;3.15;;;2.85;;
14770;SDS011;7477;45.222;5.688;2023-02-04T20:11:06;4.95;;;3.20;;
14770;SDS011;7477;45.222;5.688;2023-02-04T20:14:51;3.67;;;3.38;;
14770;SDS011;7477;45.222;5.688;2023-02-04T20:18:17;5.15;;;3.85;;
14770;SDS011;7477;45.222;5.688;2023-02-04T20:21:37;4.60;;;3.42;;
14770;SDS011;7477;45.222;5.688;2023-02-04T20:24:58;3.95;;;2.90;;
14770;SDS011;7477;45.222;5.688;2023-02-04T20:28:41;5.35;;;3.55;;
14770;SDS011;7477;45.222;5.688;2023-02-04T20:32:03;3.95;;;2.85;;
14770;SDS011;7477;45.222;5.688;2023-02-04T20:42:50;3.33;;;2.92;;
14770;SDS011;7477;45.222;5.688;2023-02-04T20:46:16;2.85;;;2.40;;
14770;SDS011;7477;45.222;5.688;2023-02-04T20:49:39;3.15;;;2.58;;
14770;SDS011;7477;45.222;5.688;2023-02-04T20:56:54;3.53;;;3.08;;
14770;SDS011;7477;45.222;5.688;2023-02-04T21:00:29;2.80;;;2.60;;
14770;SDS011;7477;45.222;5.688;2023-02-04T21:03:52;3.22;;;2.88;;
14770;SDS011;7477;45.222;5.688;2023-02-04T21:07:15;4.75;;;2.63;;
14770;SDS011;7477;45.222;5.688;2023-02-04T21:10:38;3.10;;;2.40;;